If you wish to contribute or participate in the discussions about articles you are invited to join SKYbrary as a registered user

 Actions

Alexandria/Borg El Arab

From SKYbrary Wiki

HEBA /
Revision as of 15:53, 24 March 2010 by Editor1 (talk | contribs) (Created page with '{{Airport |Airport_Name=Alexandria/Borg El Arab |ICAO_Region=AFI |ICAO_Territory=HE |Location=Alexandria/Borg El Arab, Egypt |Coordinates= 30° 55′ 6″ N, 29° 41′ 42″ E }…')
(diff) ← Older revision | Latest revision (diff) | Newer revision → (diff)
Airport
ICAO: HEBA
Summary
Name Alexandria/Borg El Arab
Region Africa
Territory Egypt EG.gif
Location Alexandria/Borg El Arab, Egypt
Serving
Coordinates 30° 55' 6.00" N, 29° 41' 42.00" E
Runways
Designator Length Width Surface ROPS
14/32 3400 m11,154.856 ft
45 m147.638 ft
ASP yes/yes
14R/32L 411 m1,348.425 ft
45 m147.638 ft
ASP /
14S/32S 411 m1,348.425 ft
45 m147.638 ft
ASP /


METAR
Observation HEBA 182300Z 30010KT CAVOK 24/19 Q1009 NOSIG
Station Alexandria Borg El Arab
Date/Time 18 August 2019 23:00:00
Wind direction 300°
Wind speed 10 kts
Lowest cloud amount clouds and visibility OK
Temperature 24°C
Dew point 19°C
Humidity 73%
QNH 1009 hPa
Weather condition n/a


Alexandria/ Borg El Arab Airport

ICAO: HEBA IATA: MAN

Description

International airport serving...

Climatology

Maps

Terrain

Loading map...

Airport Layout

Loading map...

Accidents & Serious Incidents at or in vicinity of HEBA

None on SKYbrary